sensor_id;sensor_type;location;lat;lon;timestamp;temperature;humidity
3923;DHT22;1976;51.694;6.256;2023-05-29T00:06:38;15.30;99.90
3923;DHT22;1976;51.694;6.256;2023-05-29T00:09:03;15.20;99.90
3923;DHT22;1976;51.694;6.256;2023-05-29T00:16:22;14.80;99.90
3923;DHT22;1976;51.694;6.256;2023-05-29T00:21:15;14.70;99.90
3923;DHT22;1976;51.694;6.256;2023-05-29T00:23:41;14.60;99.90
3923;DHT22;1976;51.694;6.256;2023-05-29T00:28:34;14.50;99.90
3923;DHT22;1976;51.694;6.256;2023-05-29T00:48:05;14.10;99.90
3923;DHT22;1976;51.694;6.256;2023-05-29T00:52:59;14.00;99.90
3923;DHT22;1976;51.694;6.256;2023-05-29T01:02:47;13.80;99.90
3923;DHT22;1976;51.694;6.256;2023-05-29T01:10:11;13.70;99.90
3923;DHT22;1976;51.694;6.256;2023-05-29T01:28:16;13.50;99.90
3923;DHT22;1976;51.694;6.256;2023-05-29T01:35:38;13.40;99.90
3923;DHT22;1976;51.694;6.256;2023-05-29T01:38:03;13.40;99.90
3923;DHT22;1976;51.694;6.256;2023-05-29T01:42:56;13.50;99.90
3923;DHT22;1976;51.694;6.256;2023-05-29T02:00:02;13.30;99.90
3923;DHT22;1976;51.694;6.256;2023-05-29T02:02:30;13.20;99.90
3923;DHT22;1976;51.694;6.256;2023-05-29T02:31:43;12.70;99.90
3923;DHT22;1976;51.694;6.256;2023-05-29T02:36:35;12.70;99.90
3923;DHT22;1976;51.694;6.256;2023-05-29T02:51:13;12.50;99.90
3923;DHT22;1976;51.694;6.256;2023-05-29T02:53:39;12.50;99.90
3923;DHT22;1976;51.694;6.256;2023-05-29T02:56:06;12.50;99.90
3923;DHT22;1976;51.694;6.256;2023-05-29T02:58:34;12.50;99.90
3923;DHT22;1976;51.694;6.256;2023-05-29T03:01:01;12.40;99.90
3923;DHT22;1976;51.694;6.256;2023-05-29T03:03:29;12.40;99.90
3923;DHT22;1976;51.694;6.256;2023-05-29T03:05:55;12.30;99.90
3923;DHT22;1976;51.694;6.256;2023-05-29T03:15:38;12.30;99.90
3923;DHT22;1976;51.694;6.256;2023-05-29T03:18:04;12.30;99.90
3923;DHT22;1976;51.694;6.256;2023-05-29T03:20:30;12.30;99.90
3923;DHT22;1976;51.694;6.256;2023-05-29T03:25:22;12.30;99.90
3923;DHT22;1976;51.694;6.256;2023-05-29T03:27:48;12.30;99.90
3923;DHT22;1976;51.694;6.256;2023-05-29T03:59:26;11.80;99.90
3923;DHT22;1976;51.694;6.256;2023-05-29T04:14:04;11.90;99.90
3923;DHT22;1976;51.694;6.256;2023-05-29T04:16:29;11.90;99.90
3923;DHT22;1976;51.694;6.256;2023-05-29T04:28:39;11.90;99.90
3923;DHT22;1976;51.694;6.256;2023-05-29T04:33:32;11.90;99.90
3923;DHT22;1976;51.694;6.256;2023-05-29T04:55:36;12.10;99.90
3923;DHT22;1976;51.694;6.256;2023-05-29T04:58:02;12.20;99.90
3923;DHT22;1976;51.694;6.256;2023-05-29T05:00:27;12.20;99.90
3923;DHT22;1976;51.694;6.256;2023-05-29T05:15:04;12.40;99.90
3923;DHT22;1976;51.694;6.256;2023-05-29T05:17:30;12.50;99.90
3923;DHT22;1976;51.694;6.256;2023-05-29T05:24:48;12.60;99.90
3923;DHT22;1976;51.694;6.256;2023-05-29T06:13:29;13.70;99.90
3923;DHT22;1976;51.694;6.256;2023-05-29T06:42:42;14.30;99.70
3923;DHT22;1976;51.694;6.256;2023-05-29T06:47:39;14.60;99.50
3923;DHT22;1976;51.694;6.256;2023-05-29T06:57:23;14.90;99.10
3923;DHT22;1976;51.694;6.256;2023-05-29T07:09:32;15.30;97.90
3923;DHT22;1976;51.694;6.256;2023-05-29T07:11:58;15.40;97.60
3923;DHT22;1976;51.694;6.256;2023-05-29T07:21:42;15.80;97.00
3923;DHT22;1976;51.694;6.256;2023-05-29T07:43:36;16.60;95.60
3923;DHT22;1976;51.694;6.256;2023-05-29T07:46:01;16.70;96.00
3923;DHT22;1976;51.694;6.256;2023-05-29T07:53:19;17.10;95.50
3923;DHT22;1976;51.694;6.256;2023-05-29T07:55:45;17.20;95.00
3923;DHT22;1976;51.694;6.256;2023-05-29T08:00:37;17.50;94.20
3923;DHT22;1976;51.694;6.256;2023-05-29T08:03:04;17.60;93.70
3923;DHT22;1976;51.694;6.256;2023-05-29T08:05:30;17.60;93.20
3923;DHT22;1976;51.694;6.256;2023-05-29T08:15:18;17.80;93.70
3923;DHT22;1976;51.694;6.256;2023-05-29T08:17:44;18.00;92.90
3923;DHT22;1976;51.694;6.256;2023-05-29T08:20:10;18.00;92.60
3923;DHT22;1976;51.694;6.256;2023-05-29T08:22:36;18.10;92.30
3923;DHT22;1976;51.694;6.256;2023-05-29T08:27:27;18.40;92.10
3923;DHT22;1976;51.694;6.256;2023-05-29T08:32:20;18.80;91.30
3923;DHT22;1976;51.694;6.256;2023-05-29T08:34:46;19.00;90.60
3923;DHT22;1976;51.694;6.256;2023-05-29T08:37:12;19.30;90.70
3923;DHT22;1976;51.694;6.256;2023-05-29T08:42:07;19.70;90.40
3923;DHT22;1976;51.694;6.256;2023-05-29T08:49:41;21.30;85.90
3923;DHT22;1976;51.694;6.256;2023-05-29T08:52:16;22.30;82.50
3923;DHT22;1976;51.694;6.256;2023-05-29T08:54:44;23.00;81.00
3923;DHT22;1976;51.694;6.256;2023-05-29T08:57:13;23.10;81.60
3923;DHT22;1976;51.694;6.256;2023-05-29T08:59:51;23.70;80.20
3923;DHT22;1976;51.694;6.256;2023-05-29T09:02:17;24.20;79.10
3923;DHT22;1976;51.694;6.256;2023-05-29T09:04:43;24.60;79.20
3923;DHT22;1976;51.694;6.256;2023-05-29T09:07:17;24.80;76.60
3923;DHT22;1976;51.694;6.256;2023-05-29T09:09:47;25.00;75.00
3923;DHT22;1976;51.694;6.256;2023-05-29T09:12:14;25.00;72.90
3923;DHT22;1976;51.694;6.256;2023-05-29T09:14:43;24.80;71.60
3923;DHT22;1976;51.694;6.256;2023-05-29T09:17:10;24.70;71.90
3923;DHT22;1976;51.694;6.256;2023-05-29T09:19:37;24.70;72.20
3923;DHT22;1976;51.694;6.256;2023-05-29T09:22:08;24.70;70.90
3923;DHT22;1976;51.694;6.256;2023-05-29T09:24:34;24.90;71.60
3923;DHT22;1976;51.694;6.256;2023-05-29T09:27:02;25.30;70.70
3923;DHT22;1976;51.694;6.256;2023-05-29T09:29:32;25.60;69.50
3923;DHT22;1976;51.694;6.256;2023-05-29T09:31:59;25.70;69.10
3923;DHT22;1976;51.694;6.256;2023-05-29T09:34:25;25.90;69.80
3923;DHT22;1976;51.694;6.256;2023-05-29T09:37:01;26.20;67.70
3923;DHT22;1976;51.694;6.256;2023-05-29T09:42:05;27.00;65.40
3923;DHT22;1976;51.694;6.256;2023-05-29T09:44:31;27.50;65.90
3923;DHT22;1976;51.694;6.256;2023-05-29T09:46:58;27.90;62.90
3923;DHT22;1976;51.694;6.256;2023-05-29T09:49:25;28.20;62.20
3923;DHT22;1976;51.694;6.256;2023-05-29T09:51:54;28.50;62.20
3923;DHT22;1976;51.694;6.256;2023-05-29T09:54:19;29.00;60.90
3923;DHT22;1976;51.694;6.256;2023-05-29T09:56:45;29.50;60.40
3923;DHT22;1976;51.694;6.256;2023-05-29T09:59:15;29.90;57.60
3923;DHT22;1976;51.694;6.256;2023-05-29T10:01:43;30.50;56.50
3923;DHT22;1976;51.694;6.256;2023-05-29T10:04:12;31.20;56.00
3923;DHT22;1976;51.694;6.256;2023-05-29T10:06:44;31.70;54.20
3923;DHT22;1976;51.694;6.256;2023-05-29T10:09:12;32.30;52.80
3923;DHT22;1976;51.694;6.256;2023-05-29T10:11:43;32.70;52.50
3923;DHT22;1976;51.694;6.256;2023-05-29T10:14:18;33.00;50.10
3923;DHT22;1976;51.694;6.256;2023-05-29T10:16:46;33.10;49.20
3923;DHT22;1976;51.694;6.256;2023-05-29T10:19:24;33.00;48.90
3923;DHT22;1976;51.694;6.256;2023-05-29T10:21:53;32.90;48.70
3923;DHT22;1976;51.694;6.256;2023-05-29T10:24:19;33.00;48.20
3923;DHT22;1976;51.694;6.256;2023-05-29T10:26:48;33.10;48.50
3923;DHT22;1976;51.694;6.256;2023-05-29T10:29:28;33.30;47.50
3923;DHT22;1976;51.694;6.256;2023-05-29T10:37:34;32.90;45.40
3923;DHT22;1976;51.694;6.256;2023-05-29T10:40:05;32.70;46.20
3923;DHT22;1976;51.694;6.256;2023-05-29T10:45:09;32.80;45.40
3923;DHT22;1976;51.694;6.256;2023-05-29T10:47:38;33.20;45.40
3923;DHT22;1976;51.694;6.256;2023-05-29T10:50:04;33.60;44.50
3923;DHT22;1976;51.694;6.256;2023-05-29T10:52:34;34.00;43.70
3923;DHT22;1976;51.694;6.256;2023-05-29T10:55:00;34.40;44.60
3923;DHT22;1976;51.694;6.256;2023-05-29T10:57:29;35.20;44.20
3923;DHT22;1976;51.694;6.256;2023-05-29T11:00:02;35.70;42.90
3923;DHT22;1976;51.694;6.256;2023-05-29T11:02:30;35.80;41.50
3923;DHT22;1976;51.694;6.256;2023-05-29T11:05:18;35.50;41.60
3923;DHT22;1976;51.694;6.256;2023-05-29T11:08:12;34.70;41.50
3923;DHT22;1976;51.694;6.256;2023-05-29T11:13:35;33.40;41.60
3923;DHT22;1976;51.694;6.256;2023-05-29T11:18:59;32.50;42.80
3923;DHT22;1976;51.694;6.256;2023-05-29T11:21:38;32.20;43.30
3923;DHT22;1976;51.694;6.256;2023-05-29T11:24:14;32.00;43.20
3923;DHT22;1976;51.694;6.256;2023-05-29T11:26:45;32.00;43.60
3923;DHT22;1976;51.694;6.256;2023-05-29T11:29:11;31.80;43.50
3923;DHT22;1976;51.694;6.256;2023-05-29T11:31:39;31.80;44.50
3923;DHT22;1976;51.694;6.256;2023-05-29T11:34:09;31.90;43.30
3923;DHT22;1976;51.694;6.256;2023-05-29T11:36:35;32.20;43.30
3923;DHT22;1976;51.694;6.256;2023-05-29T11:39:02;32.40;42.00
3923;DHT22;1976;51.694;6.256;2023-05-29T11:41:29;32.90;43.60
3923;DHT22;1976;51.694;6.256;2023-05-29T11:44:02;33.30;42.60
3923;DHT22;1976;51.694;6.256;2023-05-29T11:46:28;33.50;42.10
3923;DHT22;1976;51.694;6.256;2023-05-29T11:48:58;33.60;41.50
3923;DHT22;1976;51.694;6.256;2023-05-29T11:51:25;33.60;41.50
3923;DHT22;1976;51.694;6.256;2023-05-29T11:53:51;33.60;40.70
3923;DHT22;1976;51.694;6.256;2023-05-29T11:56:25;33.60;40.60
3923;DHT22;1976;51.694;6.256;2023-05-29T11:58:52;33.80;40.80
3923;DHT22;1976;51.694;6.256;2023-05-29T12:01:22;33.70;41.40
3923;DHT22;1976;51.694;6.256;2023-05-29T12:03:49;33.60;40.70
3923;DHT22;1976;51.694;6.256;2023-05-29T12:06:15;33.50;40.90
3923;DHT22;1976;51.694;6.256;2023-05-29T12:08:40;33.40;40.60
3923;DHT22;1976;51.694;6.256;2023-05-29T12:11:06;33.20;40.50
3923;DHT22;1976;51.694;6.256;2023-05-29T12:13:33;33.20;41.10
3923;DHT22;1976;51.694;6.256;2023-05-29T12:16:00;33.10;40.60
3923;DHT22;1976;51.694;6.256;2023-05-29T12:18:28;33.10;41.10
3923;DHT22;1976;51.694;6.256;2023-05-29T12:21:00;33.00;40.70
3923;DHT22;1976;51.694;6.256;2023-05-29T12:23:28;32.70;42.20
3923;DHT22;1976;51.694;6.256;2023-05-29T12:25:54;32.50;42.20
3923;DHT22;1976;51.694;6.256;2023-05-29T12:28:21;32.20;42.00
3923;DHT22;1976;51.694;6.256;2023-05-29T12:30:47;32.00;42.20
3923;DHT22;1976;51.694;6.256;2023-05-29T12:33:31;31.80;41.70
3923;DHT22;1976;51.694;6.256;2023-05-29T12:36:04;31.70;42.10
3923;DHT22;1976;51.694;6.256;2023-05-29T12:38:31;31.60;41.80
3923;DHT22;1976;51.694;6.256;2023-05-29T12:40:57;31.60;43.00
3923;DHT22;1976;51.694;6.256;2023-05-29T12:43:23;31.60;42.30
3923;DHT22;1976;51.694;6.256;2023-05-29T12:45:55;31.60;43.10
3923;DHT22;1976;51.694;6.256;2023-05-29T12:48:26;31.50;42.10
3923;DHT22;1976;51.694;6.256;2023-05-29T12:50:52;31.30;42.00
3923;DHT22;1976;51.694;6.256;2023-05-29T12:53:18;31.10;41.40
3923;DHT22;1976;51.694;6.256;2023-05-29T12:55:44;30.90;41.90
3923;DHT22;1976;51.694;6.256;2023-05-29T12:58:13;30.80;42.20
3923;DHT22;1976;51.694;6.256;2023-05-29T13:00:40;30.90;43.80
3923;DHT22;1976;51.694;6.256;2023-05-29T13:03:07;30.90;43.30
3923;DHT22;1976;51.694;6.256;2023-05-29T13:05:33;31.00;42.30
3923;DHT22;1976;51.694;6.256;2023-05-29T13:07:59;31.10;41.90
3923;DHT22;1976;51.694;6.256;2023-05-29T13:10:26;31.10;42.30
3923;DHT22;1976;51.694;6.256;2023-05-29T13:12:54;31.10;41.40
3923;DHT22;1976;51.694;6.256;2023-05-29T13:15:21;31.20;41.90
3923;DHT22;1976;51.694;6.256;2023-05-29T13:17:48;31.40;40.60
3923;DHT22;1976;51.694;6.256;2023-05-29T13:20:14;31.30;39.80
3923;DHT22;1976;51.694;6.256;2023-05-29T13:22:41;31.20;40.60
3923;DHT22;1976;51.694;6.256;2023-05-29T13:25:08;31.20;39.70
3923;DHT22;1976;51.694;6.256;2023-05-29T13:27:36;31.20;40.00
3923;DHT22;1976;51.694;6.256;2023-05-29T13:30:04;31.40;39.50
3923;DHT22;1976;51.694;6.256;2023-05-29T13:32:29;31.70;39.10
3923;DHT22;1976;51.694;6.256;2023-05-29T13:34:56;32.10;38.70
3923;DHT22;1976;51.694;6.256;2023-05-29T13:37:21;32.30;37.80
3923;DHT22;1976;51.694;6.256;2023-05-29T13:39:47;32.60;37.50
3923;DHT22;1976;51.694;6.256;2023-05-29T13:42:13;33.00;37.50
3923;DHT22;1976;51.694;6.256;2023-05-29T13:44:38;33.40;37.50
3923;DHT22;1976;51.694;6.256;2023-05-29T13:47:07;33.90;37.10
3923;DHT22;1976;51.694;6.256;2023-05-29T13:49:34;34.40;37.10
3923;DHT22;1976;51.694;6.256;2023-05-29T13:52:00;34.60;35.60
3923;DHT22;1976;51.694;6.256;2023-05-29T13:54:26;34.70;35.90
3923;DHT22;1976;51.694;6.256;2023-05-29T13:56:56;34.90;35.20
3923;DHT22;1976;51.694;6.256;2023-05-29T13:59:22;35.00;35.10
3923;DHT22;1976;51.694;6.256;2023-05-29T14:01:47;35.10;33.80
3923;DHT22;1976;51.694;6.256;2023-05-29T14:04:13;35.30;33.60
3923;DHT22;1976;51.694;6.256;2023-05-29T14:06:39;35.50;33.90
3923;DHT22;1976;51.694;6.256;2023-05-29T14:09:05;35.60;34.00
3923;DHT22;1976;51.694;6.256;2023-05-29T14:11:38;35.90;33.10
3923;DHT22;1976;51.694;6.256;2023-05-29T14:14:04;36.00;33.10
3923;DHT22;1976;51.694;6.256;2023-05-29T14:16:30;35.90;33.30
3923;DHT22;1976;51.694;6.256;2023-05-29T14:18:55;35.80;33.10
3923;DHT22;1976;51.694;6.256;2023-05-29T14:21:21;35.80;32.50
3923;DHT22;1976;51.694;6.256;2023-05-29T14:23:47;35.60;31.70
3923;DHT22;1976;51.694;6.256;2023-05-29T14:26:12;35.20;32.00
3923;DHT22;1976;51.694;6.256;2023-05-29T14:28:38;34.90;32.10
3923;DHT22;1976;51.694;6.256;2023-05-29T14:31:05;34.60;32.00
3923;DHT22;1976;51.694;6.256;2023-05-29T14:33:31;34.40;33.10
3923;DHT22;1976;51.694;6.256;2023-05-29T14:35:57;34.20;33.30
3923;DHT22;1976;51.694;6.256;2023-05-29T14:38:23;34.20;32.90
3923;DHT22;1976;51.694;6.256;2023-05-29T14:40:49;34.00;32.20
3923;DHT22;1976;51.694;6.256;2023-05-29T14:43:14;33.80;33.80
3923;DHT22;1976;51.694;6.256;2023-05-29T14:45:40;33.60;33.50
3923;DHT22;1976;51.694;6.256;2023-05-29T14:48:06;33.40;34.50
3923;DHT22;1976;51.694;6.256;2023-05-29T14:50:32;33.30;34.90
3923;DHT22;1976;51.694;6.256;2023-05-29T14:52:57;33.50;35.10
3923;DHT22;1976;51.694;6.256;2023-05-29T14:55:23;33.70;35.00
3923;DHT22;1976;51.694;6.256;2023-05-29T14:57:49;33.80;33.70
3923;DHT22;1976;51.694;6.256;2023-05-29T15:00:14;33.90;33.30
3923;DHT22;1976;51.694;6.256;2023-05-29T15:02:40;34.00;33.80
3923;DHT22;1976;51.694;6.256;2023-05-29T15:05:06;34.10;33.30
3923;DHT22;1976;51.694;6.256;2023-05-29T15:07:33;34.30;32.80
3923;DHT22;1976;51.694;6.256;2023-05-29T15:10:02;34.20;32.90
3923;DHT22;1976;51.694;6.256;2023-05-29T15:12:28;34.00;32.90
3923;DHT22;1976;51.694;6.256;2023-05-29T15:14:54;33.90;32.30
3923;DHT22;1976;51.694;6.256;2023-05-29T15:17:19;33.80;33.20
3923;DHT22;1976;51.694;6.256;2023-05-29T15:19:45;33.70;32.80
3923;DHT22;1976;51.694;6.256;2023-05-29T15:22:11;33.50;33.40
3923;DHT22;1976;51.694;6.256;2023-05-29T15:24:37;33.10;33.40
3923;DHT22;1976;51.694;6.256;2023-05-29T15:27:02;33.00;33.20
3923;DHT22;1976;51.694;6.256;2023-05-29T15:29:33;33.00;33.10
3923;DHT22;1976;51.694;6.256;2023-05-29T15:31:59;34.10;33.80
3923;DHT22;1976;51.694;6.256;2023-05-29T15:34:25;33.00;33.20
3923;DHT22;1976;51.694;6.256;2023-05-29T15:36:51;32.90;32.80
3923;DHT22;1976;51.694;6.256;2023-05-29T15:39:16;32.70;32.30
3923;DHT22;1976;51.694;6.256;2023-05-29T15:41:42;32.60;32.30
3923;DHT22;1976;51.694;6.256;2023-05-29T15:44:08;32.50;33.40
3923;DHT22;1976;51.694;6.256;2023-05-29T15:46:34;32.40;33.70
3923;DHT22;1976;51.694;6.256;2023-05-29T15:48:59;32.20;32.50
3923;DHT22;1976;51.694;6.256;2023-05-29T15:51:25;32.10;32.30
3923;DHT22;1976;51.694;6.256;2023-05-29T15:53:51;32.00;33.50
3923;DHT22;1976;51.694;6.256;2023-05-29T15:56:17;31.80;32.50
3923;DHT22;1976;51.694;6.256;2023-05-29T15:58:43;31.80;33.60
3923;DHT22;1976;51.694;6.256;2023-05-29T16:01:08;31.80;34.00
3923;DHT22;1976;51.694;6.256;2023-05-29T16:03:34;31.60;34.30
3923;DHT22;1976;51.694;6.256;2023-05-29T16:06:00;31.30;34.80
3923;DHT22;1976;51.694;6.256;2023-05-29T16:08:25;31.00;34.90
3923;DHT22;1976;51.694;6.256;2023-05-29T16:10:51;30.80;35.10
3923;DHT22;1976;51.694;6.256;2023-05-29T16:13:17;30.40;35.80
3923;DHT22;1976;51.694;6.256;2023-05-29T16:15:44;30.00;36.00
3923;DHT22;1976;51.694;6.256;2023-05-29T16:18:12;29.70;36.50
3923;DHT22;1976;51.694;6.256;2023-05-29T16:20:38;29.50;37.10
3923;DHT22;1976;51.694;6.256;2023-05-29T16:23:03;29.40;36.10
3923;DHT22;1976;51.694;6.256;2023-05-29T16:25:29;29.10;36.30
3923;DHT22;1976;51.694;6.256;2023-05-29T16:27:55;28.90;35.70
3923;DHT22;1976;51.694;6.256;2023-05-29T16:30:21;28.70;36.40
3923;DHT22;1976;51.694;6.256;2023-05-29T16:32:48;28.60;36.00
3923;DHT22;1976;51.694;6.256;2023-05-29T16:35:14;28.40;37.00
3923;DHT22;1976;51.694;6.256;2023-05-29T16:37:40;28.20;37.80
3923;DHT22;1976;51.694;6.256;2023-05-29T16:40:06;27.90;37.30
3923;DHT22;1976;51.694;6.256;2023-05-29T16:42:32;27.70;36.90
3923;DHT22;1976;51.694;6.256;2023-05-29T16:44:58;27.40;36.50
3923;DHT22;1976;51.694;6.256;2023-05-29T16:47:24;27.20;37.10
3923;DHT22;1976;51.694;6.256;2023-05-29T16:49:50;27.00;38.10
3923;DHT22;1976;51.694;6.256;2023-05-29T16:52:16;26.80;37.20
3923;DHT22;1976;51.694;6.256;2023-05-29T16:54:45;26.50;37.30
3923;DHT22;1976;51.694;6.256;2023-05-29T16:57:11;26.30;37.70
3923;DHT22;1976;51.694;6.256;2023-05-29T16:59:37;26.10;37.70
3923;DHT22;1976;51.694;6.256;2023-05-29T17:02:04;25.80;38.30
3923;DHT22;1976;51.694;6.256;2023-05-29T17:04:30;25.70;39.20
3923;DHT22;1976;51.694;6.256;2023-05-29T17:06:56;25.50;38.90
3923;DHT22;1976;51.694;6.256;2023-05-29T17:09:22;25.20;38.70
3923;DHT22;1976;51.694;6.256;2023-05-29T17:11:54;25.00;39.50
3923;DHT22;1976;51.694;6.256;2023-05-29T17:14:21;24.70;39.80
3923;DHT22;1976;51.694;6.256;2023-05-29T17:16:47;24.30;41.10
3923;DHT22;1976;51.694;6.256;2023-05-29T17:19:12;24.10;41.50
3923;DHT22;1976;51.694;6.256;2023-05-29T17:21:38;23.80;41.20
3923;DHT22;1976;51.694;6.256;2023-05-29T17:24:04;23.40;42.30
3923;DHT22;1976;51.694;6.256;2023-05-29T17:26:29;23.20;42.90
3923;DHT22;1976;51.694;6.256;2023-05-29T17:28:55;23.10;43.90
3923;DHT22;1976;51.694;6.256;2023-05-29T17:31:21;23.00;43.90
3923;DHT22;1976;51.694;6.256;2023-05-29T17:36:12;22.80;43.60
3923;DHT22;1976;51.694;6.256;2023-05-29T17:38:38;22.80;44.00
3923;DHT22;1976;51.694;6.256;2023-05-29T17:41:03;22.50;44.50
3923;DHT22;1976;51.694;6.256;2023-05-29T17:43:29;22.30;45.20
3923;DHT22;1976;51.694;6.256;2023-05-29T17:45:55;22.20;45.40
3923;DHT22;1976;51.694;6.256;2023-05-29T17:48:22;22.20;46.00
3923;DHT22;1976;51.694;6.256;2023-05-29T17:50:48;22.10;46.60
3923;DHT22;1976;51.694;6.256;2023-05-29T17:53:14;21.80;46.80
3923;DHT22;1976;51.694;6.256;2023-05-29T17:55:40;21.80;46.90
3923;DHT22;1976;51.694;6.256;2023-05-29T17:58:05;21.80;47.40
3923;DHT22;1976;51.694;6.256;2023-05-29T18:00:33;21.70;47.50
3923;DHT22;1976;51.694;6.256;2023-05-29T18:02:59;21.50;47.20
3923;DHT22;1976;51.694;6.256;2023-05-29T18:05:25;21.40;46.90
3923;DHT22;1976;51.694;6.256;2023-05-29T18:07:50;21.30;46.80
3923;DHT22;1976;51.694;6.256;2023-05-29T18:10:16;21.20;47.10
3923;DHT22;1976;51.694;6.256;2023-05-29T18:12:46;21.10;47.10
3923;DHT22;1976;51.694;6.256;2023-05-29T18:15:13;21.00;47.10
3923;DHT22;1976;51.694;6.256;2023-05-29T18:17:40;20.90;47.60
3923;DHT22;1976;51.694;6.256;2023-05-29T18:20:06;20.70;47.60
3923;DHT22;1976;51.694;6.256;2023-05-29T18:22:33;20.70;48.50
3923;DHT22;1976;51.694;6.256;2023-05-29T18:24:58;20.60;48.40
3923;DHT22;1976;51.694;6.256;2023-05-29T18:27:24;20.50;49.20
3923;DHT22;1976;51.694;6.256;2023-05-29T18:29:50;20.40;50.00
3923;DHT22;1976;51.694;6.256;2023-05-29T18:32:19;20.30;49.60
3923;DHT22;1976;51.694;6.256;2023-05-29T18:34:45;20.10;48.20
3923;DHT22;1976;51.694;6.256;2023-05-29T18:37:11;20.00;47.90
3923;DHT22;1976;51.694;6.256;2023-05-29T18:39:37;19.90;48.40
3923;DHT22;1976;51.694;6.256;2023-05-29T18:42:03;19.80;48.50
3923;DHT22;1976;51.694;6.256;2023-05-29T18:44:29;19.70;49.20
3923;DHT22;1976;51.694;6.256;2023-05-29T18:46:55;19.60;49.70
3923;DHT22;1976;51.694;6.256;2023-05-29T18:49:21;19.50;50.20
3923;DHT22;1976;51.694;6.256;2023-05-29T18:51:47;19.50;50.80
3923;DHT22;1976;51.694;6.256;2023-05-29T18:54:12;19.40;50.60
3923;DHT22;1976;51.694;6.256;2023-05-29T18:56:38;19.20;50.90
3923;DHT22;1976;51.694;6.256;2023-05-29T18:59:05;19.20;51.40
3923;DHT22;1976;51.694;6.256;2023-05-29T19:06:23;18.90;51.60
3923;DHT22;1976;51.694;6.256;2023-05-29T19:08:48;18.90;51.80
3923;DHT22;1976;51.694;6.256;2023-05-29T19:11:14;17.40;51.20
3923;DHT22;1976;51.694;6.256;2023-05-29T19:13:41;18.60;52.90
3923;DHT22;1976;51.694;6.256;2023-05-29T19:16:13;18.50;53.30
3923;DHT22;1976;51.694;6.256;2023-05-29T19:18:39;18.40;53.70
3923;DHT22;1976;51.694;6.256;2023-05-29T19:21:05;18.30;54.60
3923;DHT22;1976;51.694;6.256;2023-05-29T19:23:31;18.30;55.00
3923;DHT22;1976;51.694;6.256;2023-05-29T19:25:56;18.30;55.40
3923;DHT22;1976;51.694;6.256;2023-05-29T19:28:22;18.20;55.70
3923;DHT22;1976;51.694;6.256;2023-05-29T19:30:47;17.60;55.60
3923;DHT22;1976;51.694;6.256;2023-05-29T19:33:13;17.90;56.20
3923;DHT22;1976;51.694;6.256;2023-05-29T19:35:39;17.80;56.80
3923;DHT22;1976;51.694;6.256;2023-05-29T19:38:04;17.70;57.00
3923;DHT22;1976;51.694;6.256;2023-05-29T19:40:31;17.60;57.30
3923;DHT22;1976;51.694;6.256;2023-05-29T19:42:57;17.50;57.90
3923;DHT22;1976;51.694;6.256;2023-05-29T19:45:23;17.40;57.60
3923;DHT22;1976;51.694;6.256;2023-05-29T19:47:48;17.40;57.50
3923;DHT22;1976;51.694;6.256;2023-05-29T19:50:14;17.40;58.00
3923;DHT22;1976;51.694;6.256;2023-05-29T19:52:41;17.20;57.10
3923;DHT22;1976;51.694;6.256;2023-05-29T19:55:09;17.10;56.60
3923;DHT22;1976;51.694;6.256;2023-05-29T19:57:35;17.00;56.50
3923;DHT22;1976;51.694;6.256;2023-05-29T20:00:02;16.80;56.30
3923;DHT22;1976;51.694;6.256;2023-05-29T20:02:30;16.80;56.70
3923;DHT22;1976;51.694;6.256;2023-05-29T20:05:02;16.80;56.70
3923;DHT22;1976;51.694;6.256;2023-05-29T20:07:27;16.80;57.40
3923;DHT22;1976;51.694;6.256;2023-05-29T20:09:54;16.70;57.60
3923;DHT22;1976;51.694;6.256;2023-05-29T20:12:20;16.50;57.10
3923;DHT22;1976;51.694;6.256;2023-05-29T20:14:47;16.40;57.20
3923;DHT22;1976;51.694;6.256;2023-05-29T20:17:13;16.30;57.40
3923;DHT22;1976;51.694;6.256;2023-05-29T20:19:38;16.20;58.00
3923;DHT22;1976;51.694;6.256;2023-05-29T20:22:05;16.10;57.70
3923;DHT22;1976;51.694;6.256;2023-05-29T20:24:31;16.10;57.90
3923;DHT22;1976;51.694;6.256;2023-05-29T20:26:56;16.00;57.70
3923;DHT22;1976;51.694;6.256;2023-05-29T20:29:22;16.00;57.50
3923;DHT22;1976;51.694;6.256;2023-05-29T20:31:48;15.90;57.30
3923;DHT22;1976;51.694;6.256;2023-05-29T20:34:14;15.80;56.90
3923;DHT22;1976;51.694;6.256;2023-05-29T20:36:39;15.80;57.20
3923;DHT22;1976;51.694;6.256;2023-05-29T20:39:07;15.80;57.40
3923;DHT22;1976;51.694;6.256;2023-05-29T20:41:33;15.70;57.90
3923;DHT22;1976;51.694;6.256;2023-05-29T20:44:05;15.60;58.50
3923;DHT22;1976;51.694;6.256;2023-05-29T20:46:32;15.50;58.90
3923;DHT22;1976;51.694;6.256;2023-05-29T20:48:58;15.40;59.20
3923;DHT22;1976;51.694;6.256;2023-05-29T20:51:23;15.50;60.80
3923;DHT22;1976;51.694;6.256;2023-05-29T20:53:50;15.30;60.90
3923;DHT22;1976;51.694;6.256;2023-05-29T20:56:16;15.20;60.60
3923;DHT22;1976;51.694;6.256;2023-05-29T20:58:44;15.20;61.60
3923;DHT22;1976;51.694;6.256;2023-05-29T21:01:10;15.10;61.80
3923;DHT22;1976;51.694;6.256;2023-05-29T21:03:35;15.00;63.10
3923;DHT22;1976;51.694;6.256;2023-05-29T21:06:01;15.00;62.70
3923;DHT22;1976;51.694;6.256;2023-05-29T21:08:28;15.00;62.80
3923;DHT22;1976;51.694;6.256;2023-05-29T21:10:55;15.00;63.10
3923;DHT22;1976;51.694;6.256;2023-05-29T21:13:21;14.90;63.90
3923;DHT22;1976;51.694;6.256;2023-05-29T21:18:13;14.90;65.50
3923;DHT22;1976;51.694;6.256;2023-05-29T21:20:38;14.70;64.70
3923;DHT22;1976;51.694;6.256;2023-05-29T21:23:04;14.70;65.60
3923;DHT22;1976;51.694;6.256;2023-05-29T21:25:31;14.60;67.40
3923;DHT22;1976;51.694;6.256;2023-05-29T21:27:57;14.50;68.60
3923;DHT22;1976;51.694;6.256;2023-05-29T21:30:24;14.50;69.60
3923;DHT22;1976;51.694;6.256;2023-05-29T21:32:50;14.50;69.90
3923;DHT22;1976;51.694;6.256;2023-05-29T21:42:36;14.30;72.20
3923;DHT22;1976;51.694;6.256;2023-05-29T21:47:28;14.20;76.60
3923;DHT22;1976;51.694;6.256;2023-05-29T21:49:53;14.20;77.90
3923;DHT22;1976;51.694;6.256;2023-05-29T21:52:19;14.20;80.00
3923;DHT22;1976;51.694;6.256;2023-05-29T21:57:14;14.00;82.10
3923;DHT22;1976;51.694;6.256;2023-05-29T21:59:41;14.00;83.10
3923;DHT22;1976;51.694;6.256;2023-05-29T22:02:06;14.00;84.90
3923;DHT22;1976;51.694;6.256;2023-05-29T22:04:33;13.90;85.00
3923;DHT22;1976;51.694;6.256;2023-05-29T22:11:51;13.80;88.00
3923;DHT22;1976;51.694;6.256;2023-05-29T22:14:17;13.80;89.90
3923;DHT22;1976;51.694;6.256;2023-05-29T22:24:09;13.60;90.80
3923;DHT22;1976;51.694;6.256;2023-05-29T22:26:35;13.60;91.20
3923;DHT22;1976;51.694;6.256;2023-05-29T22:29:01;13.60;91.60
3923;DHT22;1976;51.694;6.256;2023-05-29T22:31:27;13.50;92.00
3923;DHT22;1976;51.694;6.256;2023-05-29T22:33:53;13.50;92.00
3923;DHT22;1976;51.694;6.256;2023-05-29T22:50:57;13.20;94.40
3923;DHT22;1976;51.694;6.256;2023-05-29T22:55:50;13.10;95.10
3923;DHT22;1976;51.694;6.256;2023-05-29T22:58:16;13.00;95.50
3923;DHT22;1976;51.694;6.256;2023-05-29T23:03:10;13.00;96.10
3923;DHT22;1976;51.694;6.256;2023-05-29T23:08:02;12.90;96.60
3923;DHT22;1976;51.694;6.256;2023-05-29T23:12:56;12.80;96.90
3923;DHT22;1976;51.694;6.256;2023-05-29T23:25:12;12.60;97.80
3923;DHT22;1976;51.694;6.256;2023-05-29T23:27:38;12.50;98.00
3923;DHT22;1976;51.694;6.256;2023-05-29T23:30:05;12.50;98.20
3923;DHT22;1976;51.694;6.256;2023-05-29T23:32:30;12.50;98.40
3923;DHT22;1976;51.694;6.256;2023-05-29T23:42:14;12.40;98.70
3923;DHT22;1976;51.694;6.256;2023-05-29T23:44:40;12.30;99.00